createdAt,value
2022-10-03T00:02:08.024Z,101928.13
2022-10-03T00:04:53.480Z,101931.94
2022-10-03T00:07:44.652Z,101934.22
2022-10-03T00:10:23.621Z,101929.41
2022-10-03T00:13:19.318Z,101931.31
2022-10-03T00:16:01.061Z,101932.97
2022-10-03T00:18:36.486Z,101937.16
2022-10-03T00:21:17.529Z,101937.59
2022-10-03T00:24:06.291Z,101940.75
2022-10-03T00:26:52.508Z,101934.44
2022-10-03T00:29:30.907Z,101943.25
2022-10-03T00:32:44.027Z,101940.31
2022-10-03T00:35:49.263Z,101947.66
2022-10-03T00:38:25.721Z,101938.41
2022-10-03T00:41:04.610Z,101949.75
2022-10-03T00:44:04.622Z,101957.31
2022-10-03T00:46:55.730Z,101953.94
2022-10-03T00:50:13.036Z,101955.19
2022-10-03T00:53:02.778Z,101956.88
2022-10-03T00:55:38.407Z,101951.81
2022-10-03T00:58:20.961Z,101950.19
2022-10-03T01:00:51.606Z,101947.22
2022-10-03T01:03:30.215Z,101949.31
2022-10-03T01:06:21.533Z,101967.16
2022-10-03T01:08:59.566Z,101965.28
2022-10-03T01:12:01.734Z,101964.44
2022-10-03T01:14:52.533Z,101969.47
2022-10-03T01:17:49.996Z,101961.94
2022-10-03T01:20:58.675Z,101972.84
2022-10-03T01:23:58.671Z,101961.94
2022-10-03T01:26:30.936Z,101970.34
2022-10-03T01:29:30.861Z,101971.59
2022-10-03T01:32:38.879Z,101976.25
2022-10-03T01:35:20.668Z,101975.38
2022-10-03T01:38:20.891Z,101986.72
2022-10-03T01:41:03.213Z,101984.16
2022-10-03T01:43:39.521Z,101983.34
2022-10-03T01:46:17.360Z,101982.09
2022-10-03T01:49:07.727Z,101988.38
2022-10-03T01:52:11.226Z,101996.97
2022-10-03T01:54:52.530Z,101993.19
2022-10-03T01:57:37.250Z,102002.22
2022-10-03T02:00:22.397Z,102002.22
2022-10-03T02:03:21.736Z,102011.44
2022-10-03T02:06:21.798Z,102011.88
2022-10-03T02:09:06.716Z,102015.66
2022-10-03T02:11:51.344Z,102021.94
2022-10-03T02:14:24.814Z,102018.75
2022-10-03T02:17:22.730Z,102024.41
2022-10-03T02:19:57.335Z,102032.19
2022-10-03T02:22:35.041Z,102030.63
2022-10-03T02:25:32.366Z,102036.97
2022-10-03T02:28:24.361Z,102035.03
2022-10-03T02:30:54.297Z,102031.50
2022-10-03T02:33:33.203Z,102031.69
2022-10-03T02:36:05.528Z,102035.66
2022-10-03T02:39:04.612Z,102033.97
2022-10-03T02:41:55.904Z,102046.00
2022-10-03T02:44:41.083Z,102042.31
2022-10-03T02:47:26.544Z,102045.25
2022-10-03T02:50:13.714Z,102049.44
2022-10-03T02:52:46.533Z,102042.06
2022-10-03T02:56:00.075Z,102042.81
2022-10-03T02:59:04.733Z,102049.75
2022-10-03T03:01:52.728Z,102054.66
2022-10-03T03:04:56.836Z,102060.72
2022-10-03T03:07:41.829Z,102051.31
2022-10-03T03:10:45.602Z,102050.91
2022-10-03T03:13:39.679Z,102052.19
2022-10-03T03:16:21.266Z,102063.81
2022-10-03T03:19:02.729Z,102064.03
2022-10-03T03:21:44.839Z,102069.38
2022-10-03T03:24:16.672Z,102072.09
2022-10-03T03:26:57.768Z,102060.91
2022-10-03T03:29:53.132Z,102058.19
2022-10-03T03:32:37.796Z,102063.66
2022-10-03T03:35:43.815Z,102073.13
2022-10-03T03:38:41.451Z,102059.09
2022-10-03T03:41:24.879Z,102061.25
2022-10-03T03:44:05.854Z,102065.88
2022-10-03T03:47:04.157Z,102055.28
2022-10-03T03:50:07.033Z,102061.19
2022-10-03T03:53:10.427Z,102066.03
2022-10-03T03:56:05.989Z,102066.53
2022-10-03T03:58:45.227Z,102068.25
2022-10-03T04:01:31.931Z,102072.13
2022-10-03T04:04:16.935Z,102075.66
2022-10-03T04:06:48.183Z,102084.09
2022-10-03T04:09:31.917Z,102086.91
2022-10-03T04:12:10.386Z,102085.75
2022-10-03T04:14:55.767Z,102083.16
2022-10-03T04:18:02.802Z,102079.16
2022-10-03T04:21:11.570Z,102085.22
2022-10-03T04:23:51.448Z,102090.56
2022-10-03T04:26:36.874Z,102090.75
2022-10-03T04:29:41.075Z,102094.97
2022-10-03T04:32:15.128Z,102098.81
2022-10-03T04:35:19.945Z,102098.81
2022-10-03T04:38:01.501Z,102104.72
2022-10-03T04:40:30.813Z,102101.41
2022-10-03T04:43:02.681Z,102104.41
2022-10-03T04:45:44.620Z,102106.97
2022-10-03T04:48:16.826Z,102098.53
2022-10-03T04:51:14.618Z,102103.44
2022-10-03T04:53:54.007Z,102103.88
2022-10-03T04:56:45.542Z,102107.59
2022-10-03T04:59:38.359Z,102109.06
2022-10-03T05:02:18.629Z,102111.38
2022-10-03T05:05:11.033Z,102107.50
2022-10-03T05:07:56.658Z,102110.38
2022-10-03T05:10:35.965Z,102114.28
2022-10-03T05:13:12.094Z,102108.16
2022-10-03T05:15:51.049Z,102117.31
2022-10-03T05:18:26.813Z,102117.34
2022-10-03T05:21:06.068Z,102123.31
2022-10-03T05:23:47.628Z,102132.78
2022-10-03T05:26:50.904Z,102130.19
2022-10-03T05:29:38.948Z,102132.16
2022-10-03T05:32:18.342Z,102134.81
2022-10-03T05:35:22.152Z,102136.03
2022-10-03T05:38:15.627Z,102136.88
2022-10-03T05:41:05.054Z,102134.34
2022-10-03T05:43:59.404Z,102141.75
2022-10-03T05:46:40.789Z,102140.56
2022-10-03T05:49:25.583Z,102141.41
2022-10-03T05:52:22.449Z,102146.84
2022-10-03T05:55:25.947Z,102147.09
2022-10-03T05:58:17.754Z,102149.50
2022-10-03T06:01:04.594Z,102147.44
2022-10-03T06:03:47.877Z,102145.97
2022-10-03T06:06:49.811Z,102147.63
2022-10-03T06:09:35.202Z,102151.97
2022-10-03T06:12:04.649Z,102150.84
2022-10-03T06:14:58.580Z,102152.94
2022-10-03T06:17:43.145Z,102158.03
2022-10-03T06:21:01.181Z,102162.94
2022-10-03T06:23:54.970Z,102172.03
2022-10-03T06:26:51.481Z,102159.94
2022-10-03T06:29:48.984Z,102164.59
2022-10-03T06:32:46.195Z,102169.53
2022-10-03T06:35:31.439Z,102161.59
2022-10-03T06:38:03.792Z,102171.94
2022-10-03T06:41:06.024Z,102170.47
2022-10-03T06:43:59.631Z,102164.66
2022-10-03T06:47:15.208Z,102176.59
2022-10-03T06:49:53.983Z,102172.75
2022-10-03T06:52:45.527Z,102174.44
2022-10-03T06:55:49.822Z,102180.28
2022-10-03T06:58:47.612Z,102185.34
2022-10-03T07:01:24.183Z,102181.59
2022-10-03T07:04:29.523Z,102189.38
2022-10-03T07:07:14.822Z,102192.94
2022-10-03T07:10:18.429Z,102194.19
2022-10-03T07:13:22.090Z,102198.22
2022-10-03T07:16:31.217Z,102192.56
2022-10-03T07:19:01.713Z,102199.50
2022-10-03T07:22:05.968Z,102199.50
2022-10-03T07:24:52.342Z,102200.69
2022-10-03T07:27:33.777Z,102205.97
2022-10-03T07:30:13.557Z,102201.06
2022-10-03T07:32:58.427Z,102212.03
2022-10-03T07:36:11.354Z,102214.75
2022-10-03T07:38:58.261Z,102220.63
2022-10-03T07:41:33.979Z,102218.34
2022-10-03T07:44:09.961Z,102218.69
2022-10-03T07:46:39.153Z,102224.59
2022-10-03T07:49:40.705Z,102226.63
2022-10-03T07:52:35.487Z,102221.56
2022-10-03T07:55:29.896Z,102228.72
2022-10-03T07:58:08.367Z,102222.28
2022-10-03T08:01:01.007Z,102226.72
2022-10-03T08:04:04.368Z,102221.41
2022-10-03T08:06:49.060Z,102229.03
2022-10-03T08:09:24.959Z,102233.63
2022-10-03T08:12:22.032Z,102231.63
2022-10-03T08:15:04.799Z,102233.44
2022-10-03T08:18:02.270Z,102227.16
2022-10-03T08:20:28.787Z,102248.44
2022-10-03T08:23:04.295Z,102230.53
2022-10-03T08:26:04.269Z,102237.59
2022-10-03T08:28:33.495Z,102249.44
2022-10-03T08:31:18.875Z,102247.44
2022-10-03T08:34:23.949Z,102246.97
2022-10-03T08:37:12.221Z,102247.50
2022-10-03T08:39:44.821Z,102253.91
2022-10-03T08:42:29.015Z,102251.41
2022-10-03T08:45:04.387Z,102252.22
2022-10-03T08:47:49.498Z,102256.31
2022-10-03T08:50:31.009Z,102257.41
2022-10-03T08:53:16.211Z,102263.44
2022-10-03T08:55:52.262Z,102254.97
2022-10-03T08:58:47.651Z,102253.47
2022-10-03T09:01:29.670Z,102254.72
2022-10-03T09:04:15.181Z,102257.41
2022-10-03T09:10:02.788Z,102266.25
2022-10-03T09:12:46.145Z,102265.38
2022-10-03T09:15:12.644Z,102263.03
2022-10-03T09:17:39.123Z,102263.97
2022-10-03T09:20:31.456Z,102263.28
2022-10-03T09:23:03.676Z,102270.38
2022-10-03T09:25:56.195Z,102275.19
2022-10-03T09:29:09.350Z,102271.50
2022-10-03T09:31:54.053Z,102267.19
2022-10-03T09:34:42.166Z,102264.59
2022-10-03T09:37:13.063Z,102265.66
2022-10-03T09:40:04.517Z,102268.69
2022-10-03T09:42:54.892Z,102266.78
2022-10-03T09:45:37.103Z,102278.78
2022-10-03T09:48:12.447Z,102269.00
2022-10-03T09:50:55.523Z,102268.22
2022-10-03T09:53:43.643Z,102268.75
2022-10-03T09:56:25.553Z,102274.44
2022-10-03T09:59:16.869Z,102288.09
2022-10-03T10:01:52.546Z,102273.75
2022-10-03T10:04:54.873Z,102274.97
2022-10-03T10:07:37.312Z,102276.66
2022-10-03T10:10:38.319Z,102270.69
2022-10-03T10:14:06.611Z,102272.34
2022-10-03T10:16:52.176Z,102281.34
2022-10-03T10:19:43.594Z,102282.31
2022-10-03T10:22:36.753Z,102273.50
2022-10-03T10:25:40.189Z,102267.81
2022-10-03T10:28:20.809Z,102265.75
2022-10-03T10:31:11.145Z,102265.28
2022-10-03T10:34:02.616Z,102272.88
2022-10-03T10:36:47.829Z,102278.69
2022-10-03T10:39:48.797Z,102278.16
2022-10-03T10:42:52.788Z,102275.38
2022-10-03T10:45:40.650Z,102277.81
2022-10-03T10:49:02.807Z,102262.13
2022-10-03T10:52:07.631Z,102267.38
2022-10-03T10:55:10.640Z,102260.16
2022-10-03T10:57:43.963Z,102262.91
2022-10-03T11:00:49.216Z,102275.19
2022-10-03T11:03:30.745Z,102256.28
2022-10-03T11:06:22.595Z,102265.03
2022-10-03T11:08:51.857Z,102273.69
2022-10-03T11:11:53.618Z,102264.94
2022-10-03T11:14:41.651Z,102266.41
2022-10-03T11:17:26.985Z,102269.66
2022-10-03T11:20:32.479Z,102270.06
2022-10-03T11:23:31.464Z,102268.50
2022-10-03T11:26:35.669Z,102271.44
2022-10-03T11:29:41.025Z,102277.00
2022-10-03T11:32:20.408Z,102266.47
2022-10-03T11:34:52.790Z,102271.75
2022-10-03T11:37:45.780Z,102266.09
2022-10-03T11:40:50.147Z,102266.75
2022-10-03T11:43:28.630Z,102266.09
2022-10-03T11:46:14.406Z,102261.19
2022-10-03T11:48:44.215Z,102261.69
2022-10-03T11:51:16.279Z,102255.97
2022-10-03T11:54:07.398Z,102261.63
2022-10-03T11:56:45.528Z,102270.56
2022-10-03T11:59:24.874Z,102264.53
2022-10-03T12:02:05.658Z,102259.34
2022-10-03T12:04:39.552Z,102269.63
2022-10-03T12:07:47.868Z,102254.88
2022-10-03T12:10:35.859Z,102261.63
2022-10-03T12:13:09.226Z,102270.41
2022-10-03T12:15:42.280Z,102270.13
2022-10-03T12:18:16.846Z,102277.16
2022-10-03T12:20:46.208Z,102271.91
2022-10-03T12:23:34.266Z,102272.28
2022-10-03T12:26:03.488Z,102272.56
2022-10-03T12:28:39.942Z,102265.34
2022-10-03T12:31:21.288Z,102266.84
2022-10-03T12:34:03.190Z,102272.91
2022-10-03T12:36:37.524Z,102275.22
2022-10-03T12:39:09.807Z,102274.00
2022-10-03T12:41:58.869Z,102280.25
2022-10-03T12:44:44.083Z,102283.09
2022-10-03T12:47:56.172Z,102288.66
2022-10-03T12:50:41.354Z,102281.97
2022-10-03T12:53:21.426Z,102278.25
2022-10-03T12:56:11.376Z,102281.97
2022-10-03T12:58:56.274Z,102292.59
2022-10-03T13:01:41.097Z,102284.88
2022-10-03T13:04:32.605Z,102292.84
2022-10-03T13:07:22.369Z,102281.88
2022-10-03T13:10:00.912Z,102283.41
2022-10-03T13:12:46.123Z,102290.59
2022-10-03T13:15:43.055Z,102290.19
2022-10-03T13:18:28.613Z,102288.91
2022-10-03T13:21:27.103Z,102284.72
2022-10-03T13:24:07.249Z,102279.59
2022-10-03T13:26:44.382Z,102286.38
2022-10-03T13:29:35.087Z,102284.00
2022-10-03T13:32:16.464Z,102275.84
2022-10-03T13:35:24.811Z,102270.19
2022-10-03T13:38:33.276Z,102273.78
2022-10-03T13:41:27.803Z,102275.34
2022-10-03T13:44:00.499Z,102276.22
2022-10-03T13:46:37.533Z,102279.47
2022-10-03T13:49:18.730Z,102273.81
2022-10-03T13:52:02.989Z,102280.25
2022-10-03T13:54:52.670Z,102294.72
2022-10-03T13:57:27.263Z,102293.94
2022-10-03T13:59:53.869Z,102270.47
2022-10-03T14:02:47.609Z,102272.66
2022-10-03T14:05:38.952Z,102275.78
2022-10-03T14:08:39.474Z,102269.31
2022-10-03T14:11:23.784Z,102263.50
2022-10-03T14:14:24.394Z,102260.31
2022-10-03T14:17:13.973Z,102262.28
2022-10-03T14:20:06.463Z,102253.28
2022-10-03T14:22:45.527Z,102254.81
2022-10-03T14:25:21.105Z,102244.44
2022-10-03T14:27:54.367Z,102257.31
2022-10-03T14:30:58.533Z,102262.88
2022-10-03T14:33:38.966Z,102254.72
2022-10-03T14:36:36.343Z,102248.53
2022-10-03T14:39:08.711Z,102254.16
2022-10-03T14:41:56.363Z,102259.81
2022-10-03T14:44:26.931Z,102252.44
2022-10-03T14:47:03.185Z,102256.63
2022-10-03T14:52:40.258Z,102255.25
2022-10-03T14:55:29.904Z,102257.56
2022-10-03T14:58:10.631Z,102249.44
2022-10-03T15:00:43.028Z,102253.56
2022-10-03T15:03:21.862Z,102255.00
2022-10-03T15:05:57.259Z,102249.69
2022-10-03T15:08:30.521Z,102252.06
2022-10-03T15:10:57.721Z,102257.56
2022-10-03T15:13:27.818Z,102252.38
2022-10-03T15:15:56.547Z,102252.06
2022-10-03T15:18:24.953Z,102255.41
2022-10-03T15:20:57.561Z,102249.63
2022-10-03T15:23:56.759Z,102238.69
2022-10-03T15:26:26.215Z,102253.72
2022-10-03T15:28:59.483Z,102247.03
2022-10-03T15:31:35.704Z,102236.91
2022-10-03T15:34:06.935Z,102236.97
2022-10-03T15:36:40.014Z,102240.19
2022-10-03T15:39:21.523Z,102241.25
2022-10-03T15:42:07.781Z,102229.50
2022-10-03T15:44:40.147Z,102235.16
2022-10-03T15:47:14.911Z,102229.81
2022-10-03T15:50:17.343Z,102233.31
2022-10-03T15:52:49.215Z,102226.81
2022-10-03T15:55:42.364Z,102222.09
2022-10-03T15:58:33.456Z,102217.94
2022-10-03T16:01:09.713Z,102231.56
2022-10-03T16:03:47.329Z,102231.88
2022-10-03T16:06:35.637Z,102226.59
2022-10-03T16:09:11.167Z,102231.63
2022-10-03T16:11:54.247Z,102238.19
2022-10-03T16:14:41.776Z,102240.34
2022-10-03T16:17:33.347Z,102241.09
2022-10-03T16:20:06.302Z,102235.66
2022-10-03T16:22:49.836Z,102234.47
2022-10-03T16:25:21.769Z,102240.28
2022-10-03T16:28:03.242Z,102241.22
2022-10-03T16:31:03.223Z,102235.00
2022-10-03T16:33:37.576Z,102232.81
2022-10-03T16:36:18.336Z,102227.19
2022-10-03T16:39:06.392Z,102232.09
2022-10-03T16:41:40.821Z,102225.03
2022-10-03T16:44:20.736Z,102224.88
2022-10-03T16:46:49.438Z,102224.41
2022-10-03T16:49:44.729Z,102224.66
2022-10-03T16:52:15.424Z,102221.03
2022-10-03T16:54:43.544Z,102216.31
2022-10-03T16:57:18.794Z,102219.34
2022-10-03T16:59:49.864Z,102211.97
2022-10-03T17:02:21.292Z,102225.13
2022-10-03T17:04:52.835Z,102225.16
2022-10-03T17:07:36.998Z,102218.97
2022-10-03T17:10:05.135Z,102215.16
2022-10-03T17:12:39.847Z,102210.44
2022-10-03T17:15:15.873Z,102216.66
2022-10-03T17:18:34.975Z,102219.06
2022-10-03T17:21:13.777Z,102223.25
2022-10-03T17:23:49.935Z,102221.91
2022-10-03T17:26:37.697Z,102222.16
2022-10-03T17:29:26.389Z,102216.00
2022-10-03T17:32:02.317Z,102217.66
2022-10-03T17:34:41.412Z,102225.69
2022-10-03T17:37:34.697Z,102229.91
2022-10-03T17:40:16.777Z,102220.47
2022-10-03T17:42:46.979Z,102230.19
2022-10-03T17:45:42.951Z,102227.00
2022-10-03T17:48:18.726Z,102230.97
2022-10-03T17:50:54.084Z,102221.34
2022-10-03T17:53:26.262Z,102223.78
2022-10-03T17:56:04.222Z,102219.03
2022-10-03T17:58:33.174Z,102223.09
2022-10-03T18:01:29.137Z,102220.53
2022-10-03T18:03:55.726Z,102220.69
2022-10-03T18:06:34.959Z,102226.16
2022-10-03T18:09:08.648Z,102221.16
2022-10-03T18:11:40.368Z,102221.41
2022-10-03T18:14:42.125Z,102228.56
2022-10-03T18:17:36.231Z,102226.31
2022-10-03T18:20:22.939Z,102230.28
2022-10-03T18:22:59.077Z,102220.22
2022-10-03T18:26:20.941Z,102224.44
2022-10-03T18:29:05.189Z,102222.09
2022-10-03T18:31:35.335Z,102216.81
2022-10-03T18:34:24.686Z,102220.56
2022-10-03T18:36:54.532Z,102223.75
2022-10-03T18:39:26.162Z,102224.59
2022-10-03T18:42:00.863Z,102224.34
2022-10-03T18:44:31.296Z,102226.09
2022-10-03T18:47:23.578Z,102232.81
2022-10-03T18:50:27.638Z,102226.47
2022-10-03T18:53:18.539Z,102234.69
2022-10-03T18:55:51.216Z,102233.63
2022-10-03T18:58:21.534Z,102229.44
2022-10-03T19:00:56.585Z,102226.50
2022-10-03T19:03:31.877Z,102229.91
2022-10-03T19:06:05.164Z,102228.44
2022-10-03T19:08:38.775Z,102223.19
2022-10-03T19:11:24.627Z,102221.91
2022-10-03T19:14:12.467Z,102224.84
2022-10-03T19:16:57.714Z,102231.34
2022-10-03T19:19:45.362Z,102222.78
2022-10-03T19:22:16.269Z,102219.81
2022-10-03T19:24:58.498Z,102225.28
2022-10-03T19:27:43.318Z,102223.84
2022-10-03T19:30:17.849Z,102221.53
2022-10-03T19:32:53.872Z,102221.34
2022-10-03T19:35:23.162Z,102225.97
2022-10-03T19:37:53.639Z,102227.88
2022-10-03T19:40:50.483Z,102229.13
2022-10-03T19:43:39.178Z,102226.19
2022-10-03T19:46:11.434Z,102224.94
2022-10-03T19:48:51.329Z,102229.56
2022-10-03T19:51:25.387Z,102235.44
2022-10-03T19:53:55.039Z,102222.63
2022-10-03T19:56:23.393Z,102234.63
2022-10-03T19:59:17.656Z,102228.28
2022-10-03T20:01:47.002Z,102234.19
2022-10-03T20:04:18.959Z,102227.47
2022-10-03T20:06:50.135Z,102229.97
2022-10-03T20:09:25.899Z,102236.09
2022-10-03T20:11:59.971Z,102230.63
2022-10-03T20:14:33.931Z,102222.41
2022-10-03T20:17:04.612Z,102213.16
2022-10-03T20:19:57.076Z,102226.19
2022-10-03T20:22:37.655Z,102216.94
2022-10-03T20:25:08.342Z,102216.94
2022-10-03T20:27:43.192Z,102217.38
2022-10-03T20:30:37.881Z,102219.44
2022-10-03T20:33:05.472Z,102215.25
2022-10-03T20:36:10.541Z,102210.63
2022-10-03T20:38:37.007Z,102197.56
2022-10-03T20:41:15.961Z,102199.91
2022-10-03T20:43:52.296Z,102206.59
2022-10-03T20:46:34.692Z,102206.13
2022-10-03T20:49:13.410Z,102208.88
2022-10-03T20:51:55.010Z,102216.00
2022-10-03T20:54:27.072Z,102215.19
2022-10-03T20:57:25.214Z,102197.97
2022-10-03T21:00:08.465Z,102200.25
2022-10-03T21:02:44.158Z,102209.72
2022-10-03T21:05:29.049Z,102213.50
2022-10-03T21:08:00.051Z,102213.94
2022-10-03T21:10:31.213Z,102218.78
2022-10-03T21:13:22.644Z,102208.69
2022-10-03T21:15:53.504Z,102208.69
2022-10-03T21:18:30.534Z,102205.13
2022-10-03T21:21:07.883Z,102207.59
2022-10-03T21:23:52.511Z,102210.59
2022-10-03T21:26:30.450Z,102212.69
2022-10-03T21:29:29.243Z,102209.34
2022-10-03T21:32:26.532Z,102203.00
2022-10-03T21:35:14.578Z,102203.22
2022-10-03T21:38:05.729Z,102196.50
2022-10-03T21:40:41.196Z,102209.03
2022-10-03T21:43:30.236Z,102208.16
2022-10-03T21:46:18.383Z,102201.91
2022-10-03T21:49:17.596Z,102196.66
2022-10-03T21:51:46.929Z,102197.47
2022-10-03T21:54:51.660Z,102195.16
2022-10-03T21:57:32.649Z,102189.91
2022-10-03T22:00:13.773Z,102189.19
2022-10-03T22:03:16.402Z,102182.63
2022-10-03T22:05:55.594Z,102183.38
2022-10-03T22:08:30.301Z,102183.50
2022-10-03T22:11:08.900Z,102181.84
2022-10-03T22:13:39.482Z,102184.59
2022-10-03T22:16:31.059Z,102170.22
2022-10-03T22:19:18.440Z,102169.00
2022-10-03T22:21:52.861Z,102167.72
2022-10-03T22:24:29.396Z,102165.03
2022-10-03T22:27:37.913Z,102168.44
2022-10-03T22:30:11.166Z,102164.22
2022-10-03T22:32:43.974Z,102165.09
2022-10-03T22:35:10.458Z,102165.44
2022-10-03T22:37:38.114Z,102163.34
2022-10-03T22:40:05.924Z,102173.44
2022-10-03T22:42:41.102Z,102162.94
2022-10-03T22:45:10.642Z,102160.44
2022-10-03T22:47:39.912Z,102164.63
2022-10-03T22:50:13.013Z,102168.19
2022-10-03T22:52:43.240Z,102165.44
2022-10-03T22:55:14.265Z,102172.53
2022-10-03T22:57:42.944Z,102170.03
2022-10-03T23:00:12.620Z,102168.94
2022-10-03T23:02:55.160Z,102156.56
2022-10-03T23:05:30.709Z,102160.53
2022-10-03T23:08:15.379Z,102155.91
2022-10-03T23:10:57.677Z,102167.63
2022-10-03T23:13:44.085Z,102160.53
2022-10-03T23:16:16.606Z,102156.94
2022-10-03T23:19:18.738Z,102156.63
2022-10-03T23:21:50.480Z,102160.47
2022-10-03T23:24:24.246Z,102160.75
2022-10-03T23:27:39.279Z,102150.84
2022-10-03T23:30:11.741Z,102146.75
2022-10-03T23:32:47.121Z,102155.50
2022-10-03T23:35:31.922Z,102142.97
2022-10-03T23:37:59.839Z,102142.75
2022-10-03T23:40:27.897Z,102149.38
2022-10-03T23:43:01.365Z,102141.53
2022-10-03T23:45:29.757Z,102130.25
2022-10-03T23:48:14.495Z,102132.78
2022-10-03T23:50:58.348Z,102134.59
2022-10-03T23:53:27.699Z,102131.41
2022-10-03T23:55:54.947Z,102131.81
2022-10-03T23:58:31.975Z,102126.47
